sensor_id;sensor_type;location;lat;lon;timestamp;pressure;altitude;pressure_sealevel;temperature;humidity
55032;BME280;40928;51.076;7.950;2023-01-08T00:00:00;96099.28;;;7.30;100.00
55032;BME280;40928;51.076;7.950;2023-01-08T00:02:37;96107.00;;;7.31;100.00
55032;BME280;40928;51.076;7.950;2023-01-08T00:05:03;96104.09;;;7.33;100.00
55032;BME280;40928;51.076;7.950;2023-01-08T00:07:29;96104.75;;;7.40;100.00
55032;BME280;40928;51.076;7.950;2023-01-08T00:09:54;96106.53;;;7.35;100.00
55032;BME280;40928;51.076;7.950;2023-01-08T00:12:20;96106.53;;;7.35;100.00
55032;BME280;40928;51.076;7.950;2023-01-08T00:14:45;96092.44;;;7.34;100.00
55032;BME280;40928;51.076;7.950;2023-01-08T00:17:11;96096.94;;;7.34;100.00
55032;BME280;40928;51.076;7.950;2023-01-08T00:19:36;96097.50;;;7.36;100.00
55032;BME280;40928;51.076;7.950;2023-01-08T00:22:02;96098.09;;;7.38;100.00
55032;BME280;40928;51.076;7.950;2023-01-08T00:24:27;96090.91;;;7.38;100.00
55032;BME280;40928;51.076;7.950;2023-01-08T00:26:53;96086.72;;;7.42;100.00
55032;BME280;40928;51.076;7.950;2023-01-08T00:29:18;96104.28;;;7.43;100.00
55032;BME280;40928;51.076;7.950;2023-01-08T00:31:44;96095.44;;;7.38;100.00
55032;BME280;40928;51.076;7.950;2023-01-08T00:34:09;96096.94;;;7.34;100.00
55032;BME280;40928;51.076;7.950;2023-01-08T00:36:35;96095.59;;;7.31;100.00
55032;BME280;40928;51.076;7.950;2023-01-08T00:39:00;96097.69;;;7.29;100.00
55032;BME280;40928;51.076;7.950;2023-01-08T00:41:26;96084.16;;;7.30;100.00
55032;BME280;40928;51.076;7.950;2023-01-08T00:43:51;96086.06;;;7.35;100.00
55032;BME280;40928;51.076;7.950;2023-01-08T00:46:17;96085.19;;;7.29;100.00
55032;BME280;40928;51.076;7.950;2023-01-08T00:48:43;96080.91;;;7.28;100.00
55032;BME280;40928;51.076;7.950;2023-01-08T00:51:08;96086.31;;;7.34;100.00
55032;BME280;40928;51.076;7.950;2023-01-08T00:53:35;96082.84;;;7.33;100.00
55032;BME280;40928;51.076;7.950;2023-01-08T00:56:04;96089.94;;;7.27;100.00
55032;BME280;40928;51.076;7.950;2023-01-08T00:58:30;96077.69;;;7.26;100.00
55032;BME280;40928;51.076;7.950;2023-01-08T01:00:55;96086.22;;;7.28;100.00
55032;BME280;40928;51.076;7.950;2023-01-08T01:03:21;96076.34;;;7.24;100.00
55032;BME280;40928;51.076;7.950;2023-01-08T01:05:47;96090.41;;;7.24;100.00
55032;BME280;40928;51.076;7.950;2023-01-08T01:08:12;96084.47;;;7.34;100.00
55032;BME280;40928;51.076;7.950;2023-01-08T01:10:38;96084.97;;;7.31;100.00
55032;BME280;40928;51.076;7.950;2023-01-08T01:13:04;96077.94;;;7.25;100.00
55032;BME280;40928;51.076;7.950;2023-01-08T01:15:30;96073.34;;;7.37;100.00
55032;BME280;40928;51.076;7.950;2023-01-08T01:17:55;96079.66;;;7.31;100.00
55032;BME280;40928;51.076;7.950;2023-01-08T01:20:21;96053.09;;;7.31;100.00
55032;BME280;40928;51.076;7.950;2023-01-08T01:22:48;96064.34;;;7.38;100.00
55032;BME280;40928;51.076;7.950;2023-01-08T01:25:14;96053.41;;;7.35;100.00
55032;BME280;40928;51.076;7.950;2023-01-08T01:27:40;96057.41;;;7.37;100.00
55032;BME280;40928;51.076;7.950;2023-01-08T01:30:06;96065.81;;;7.29;100.00
55032;BME280;40928;51.076;7.950;2023-01-08T01:32:32;96064.41;;;7.26;100.00
55032;BME280;40928;51.076;7.950;2023-01-08T01:34:57;96066.50;;;7.24;100.00
55032;BME280;40928;51.076;7.950;2023-01-08T01:37:23;96071.59;;;7.26;100.00
55032;BME280;40928;51.076;7.950;2023-01-08T01:39:48;96081.41;;;7.25;100.00
55032;BME280;40928;51.076;7.950;2023-01-08T01:42:16;96079.56;;;7.26;100.00
55032;BME280;40928;51.076;7.950;2023-01-08T01:45:02;96078.66;;;7.20;100.00
55032;BME280;40928;51.076;7.950;2023-01-08T01:47:38;96084.31;;;7.24;100.00
55032;BME280;40928;51.076;7.950;2023-01-08T01:52:41;96092.00;;;7.25;100.00
55032;BME280;40928;51.076;7.950;2023-01-08T01:55:09;96099.19;;;7.25;100.00
55032;BME280;40928;51.076;7.950;2023-01-08T01:57:36;96086.97;;;7.24;100.00
55032;BME280;40928;51.076;7.950;2023-01-08T02:00:07;96089.03;;;7.22;100.00
55032;BME280;40928;51.076;7.950;2023-01-08T02:02:40;96080.19;;;7.16;100.00
55032;BME280;40928;51.076;7.950;2023-01-08T02:05:07;96087.03;;;7.12;100.00
55032;BME280;40928;51.076;7.950;2023-01-08T02:10:06;96083.63;;;7.16;100.00
55032;BME280;40928;51.076;7.950;2023-01-08T02:15:40;96066.81;;;7.11;100.00
55032;BME280;40928;51.076;7.950;2023-01-08T02:18:18;96077.06;;;7.19;100.00
55032;BME280;40928;51.076;7.950;2023-01-08T02:20:55;96075.38;;;7.30;100.00
55032;BME280;40928;51.076;7.950;2023-01-08T02:23:59;96072.53;;;7.20;100.00
55032;BME280;40928;51.076;7.950;2023-01-08T02:26:29;96068.78;;;7.15;100.00
55032;BME280;40928;51.076;7.950;2023-01-08T02:29:09;96058.53;;;7.24;100.00
55032;BME280;40928;51.076;7.950;2023-01-08T02:31:38;96058.94;;;7.33;100.00
55032;BME280;40928;51.076;7.950;2023-01-08T02:34:04;96052.44;;;7.24;100.00
55032;BME280;40928;51.076;7.950;2023-01-08T02:36:53;96047.59;;;7.21;100.00
55032;BME280;40928;51.076;7.950;2023-01-08T02:39:28;96038.19;;;7.13;100.00
55032;BME280;40928;51.076;7.950;2023-01-08T02:44:56;96055.09;;;7.07;100.00
55032;BME280;40928;51.076;7.950;2023-01-08T02:47:35;96033.91;;;7.12;100.00
55032;BME280;40928;51.076;7.950;2023-01-08T02:52:51;96022.19;;;7.08;100.00
55032;BME280;40928;51.076;7.950;2023-01-08T02:55:21;96024.34;;;7.11;100.00
55032;BME280;40928;51.076;7.950;2023-01-08T02:57:48;96007.78;;;7.21;100.00
55032;BME280;40928;51.076;7.950;2023-01-08T03:00:14;95988.47;;;7.08;100.00
55032;BME280;40928;51.076;7.950;2023-01-08T03:02:41;95990.78;;;7.22;100.00
55032;BME280;40928;51.076;7.950;2023-01-08T03:05:14;95985.66;;;7.15;100.00
55032;BME280;40928;51.076;7.950;2023-01-08T03:07:45;95977.13;;;7.13;100.00
55032;BME280;40928;51.076;7.950;2023-01-08T03:10:11;95975.84;;;7.15;100.00
55032;BME280;40928;51.076;7.950;2023-01-08T03:12:48;95971.97;;;7.06;100.00
55032;BME280;40928;51.076;7.950;2023-01-08T03:15:42;95970.94;;;7.07;100.00
55032;BME280;40928;51.076;7.950;2023-01-08T03:18:10;95967.56;;;7.12;100.00
55032;BME280;40928;51.076;7.950;2023-01-08T03:20:37;95957.34;;;7.04;100.00
55032;BME280;40928;51.076;7.950;2023-01-08T03:23:06;95958.78;;;7.11;100.00
55032;BME280;40928;51.076;7.950;2023-01-08T03:25:37;95953.19;;;7.08;100.00
55032;BME280;40928;51.076;7.950;2023-01-08T03:28:09;95949.78;;;7.12;100.00
55032;BME280;40928;51.076;7.950;2023-01-08T03:30:38;95941.25;;;7.10;100.00
55032;BME280;40928;51.076;7.950;2023-01-08T03:33:06;95948.00;;;7.18;100.00
55032;BME280;40928;51.076;7.950;2023-01-08T03:35:36;95948.78;;;7.19;100.00
55032;BME280;40928;51.076;7.950;2023-01-08T03:38:09;95948.78;;;7.19;100.00
55032;BME280;40928;51.076;7.950;2023-01-08T03:40:43;95942.44;;;7.20;100.00
55032;BME280;40928;51.076;7.950;2023-01-08T03:43:10;95943.50;;;7.19;100.00
55032;BME280;40928;51.076;7.950;2023-01-08T03:45:37;95941.41;;;7.21;100.00
55032;BME280;40928;51.076;7.950;2023-01-08T03:48:06;95942.44;;;7.20;100.00
55032;BME280;40928;51.076;7.950;2023-01-08T03:50:34;95938.50;;;7.22;100.00
55032;BME280;40928;51.076;7.950;2023-01-08T03:52:59;95940.84;;;7.19;100.00
55032;BME280;40928;51.076;7.950;2023-01-08T03:55:25;95929.50;;;7.23;100.00
55032;BME280;40928;51.076;7.950;2023-01-08T03:57:51;95926.84;;;7.23;100.00
55032;BME280;40928;51.076;7.950;2023-01-08T04:00:16;95941.69;;;7.24;100.00
55032;BME280;40928;51.076;7.950;2023-01-08T04:02:42;95927.34;;;7.20;100.00
55032;BME280;40928;51.076;7.950;2023-01-08T04:05:08;95926.84;;;7.23;100.00
55032;BME280;40928;51.076;7.950;2023-01-08T04:07:34;95928.09;;;7.38;100.00
55032;BME280;40928;51.076;7.950;2023-01-08T04:09:59;95935.81;;;7.39;100.00
55032;BME280;40928;51.076;7.950;2023-01-08T04:12:25;95934.38;;;7.31;100.00
55032;BME280;40928;51.076;7.950;2023-01-08T04:14:50;95933.59;;;7.31;100.00
55032;BME280;40928;51.076;7.950;2023-01-08T04:17:16;95937.28;;;7.30;100.00
55032;BME280;40928;51.076;7.950;2023-01-08T04:19:41;95931.16;;;7.29;100.00
55032;BME280;40928;51.076;7.950;2023-01-08T04:22:09;95936.09;;;7.21;100.00
55032;BME280;40928;51.076;7.950;2023-01-08T04:24:35;95928.06;;;7.15;100.00
55032;BME280;40928;51.076;7.950;2023-01-08T04:27:00;95935.53;;;7.19;100.00
55032;BME280;40928;51.076;7.950;2023-01-08T04:29:26;95940.84;;;7.19;100.00
55032;BME280;40928;51.076;7.950;2023-01-08T04:32:11;95937.09;;;7.14;100.00
55032;BME280;40928;51.076;7.950;2023-01-08T04:34:36;95938.25;;;7.24;100.00
55032;BME280;40928;51.076;7.950;2023-01-08T04:37:02;95928.38;;;7.19;100.00
55032;BME280;40928;51.076;7.950;2023-01-08T04:39:28;95926.19;;;7.16;100.00
55032;BME280;40928;51.076;7.950;2023-01-08T04:41:53;95930.16;;;7.13;100.00
55032;BME280;40928;51.076;7.950;2023-01-08T04:44:19;95925.94;;;7.18;100.00
55032;BME280;40928;51.076;7.950;2023-01-08T04:46:44;95928.84;;;7.16;100.00
55032;BME280;40928;51.076;7.950;2023-01-08T04:49:11;95923.47;;;7.11;100.00
55032;BME280;40928;51.076;7.950;2023-01-08T04:51:36;95924.28;;;7.11;100.00
55032;BME280;40928;51.076;7.950;2023-01-08T04:54:02;95920.75;;;7.06;100.00
55032;BME280;40928;51.076;7.950;2023-01-08T04:56:28;95904.25;;;7.04;100.00
55032;BME280;40928;51.076;7.950;2023-01-08T04:58:53;95906.91;;;7.04;100.00
55032;BME280;40928;51.076;7.950;2023-01-08T05:01:22;95913.09;;;7.09;100.00
55032;BME280;40928;51.076;7.950;2023-01-08T05:03:52;95900.56;;;7.05;100.00
55032;BME280;40928;51.076;7.950;2023-01-08T05:06:18;95888.34;;;7.04;100.00
55032;BME280;40928;51.076;7.950;2023-01-08T05:08:43;95888.66;;;7.07;100.00
55032;BME280;40928;51.076;7.950;2023-01-08T05:11:09;95890.44;;;7.01;100.00
55032;BME280;40928;51.076;7.950;2023-01-08T05:13:34;95880.84;;;7.00;100.00
55032;BME280;40928;51.076;7.950;2023-01-08T05:16:00;95882.72;;;7.00;100.00
55032;BME280;40928;51.076;7.950;2023-01-08T05:18:27;95875.25;;;6.97;100.00
55032;BME280;40928;51.076;7.950;2023-01-08T05:20:52;95873.06;;;6.94;100.00
55032;BME280;40928;51.076;7.950;2023-01-08T05:23:18;95870.50;;;6.99;100.00
55032;BME280;40928;51.076;7.950;2023-01-08T05:25:43;95874.19;;;6.98;100.00
55032;BME280;40928;51.076;7.950;2023-01-08T05:28:09;95874.41;;;7.13;100.00
55032;BME280;40928;51.076;7.950;2023-01-08T05:30:35;95880.75;;;7.12;100.00
55032;BME280;40928;51.076;7.950;2023-01-08T05:33:01;95882.94;;;6.98;100.00
55032;BME280;40928;51.076;7.950;2023-01-08T05:35:26;95881.91;;;6.99;100.00
55032;BME280;40928;51.076;7.950;2023-01-08T05:37:52;95882.38;;;6.96;100.00
55032;BME280;40928;51.076;7.950;2023-01-08T05:40:17;95874.84;;;6.88;100.00
55032;BME280;40928;51.076;7.950;2023-01-08T05:42:43;95877.56;;;6.93;100.00
55032;BME280;40928;51.076;7.950;2023-01-08T05:45:08;95885.84;;;6.97;100.00
55032;BME280;40928;51.076;7.950;2023-01-08T05:47:35;95888.75;;;6.95;100.00
55032;BME280;40928;51.076;7.950;2023-01-08T05:50:12;95870.09;;;6.90;100.00
55032;BME280;40928;51.076;7.950;2023-01-08T05:52:40;95884.00;;;6.97;100.00
55032;BME280;40928;51.076;7.950;2023-01-08T05:55:30;95889.47;;;6.91;100.00
55032;BME280;40928;51.076;7.950;2023-01-08T05:58:03;95892.78;;;6.98;100.00
55032;BME280;40928;51.076;7.950;2023-01-08T06:00:32;95882.16;;;6.98;100.00
55032;BME280;40928;51.076;7.950;2023-01-08T06:02:58;95896.00;;;7.00;100.00
55032;BME280;40928;51.076;7.950;2023-01-08T06:05:24;95890.44;;;7.01;100.00
55032;BME280;40928;51.076;7.950;2023-01-08T06:07:49;95887.22;;;6.99;100.00
55032;BME280;40928;51.076;7.950;2023-01-08T06:10:15;95879.81;;;7.01;100.00
55032;BME280;40928;51.076;7.950;2023-01-08T06:12:41;95879.63;;;7.08;100.00
55032;BME280;40928;51.076;7.950;2023-01-08T06:15:06;95882.22;;;7.03;100.00
55032;BME280;40928;51.076;7.950;2023-01-08T06:17:34;95879.81;;;7.01;100.00
55032;BME280;40928;51.076;7.950;2023-01-08T06:19:59;95882.56;;;6.90;100.00
55032;BME280;40928;51.076;7.950;2023-01-08T06:22:25;95881.59;;;6.96;100.00
55032;BME280;40928;51.076;7.950;2023-01-08T06:24:51;95878.13;;;6.95;100.00
55032;BME280;40928;51.076;7.950;2023-01-08T06:27:17;95871.72;;;6.91;100.00
55032;BME280;40928;51.076;7.950;2023-01-08T06:29:42;95873.00;;;6.89;100.00
55032;BME280;40928;51.076;7.950;2023-01-08T06:32:08;95872.44;;;6.86;100.00
55032;BME280;40928;51.076;7.950;2023-01-08T06:34:34;95875.16;;;6.92;100.00
55032;BME280;40928;51.076;7.950;2023-01-08T06:36:59;95879.84;;;6.84;100.00
55032;BME280;40928;51.076;7.950;2023-01-08T06:39:25;95876.41;;;7.06;100.00
55032;BME280;40928;51.076;7.950;2023-01-08T06:41:50;95868.72;;;6.88;100.00
55032;BME280;40928;51.076;7.950;2023-01-08T06:44:16;95876.22;;;6.91;100.00
55032;BME280;40928;51.076;7.950;2023-01-08T06:46:41;95872.09;;;7.00;100.00
55032;BME280;40928;51.076;7.950;2023-01-08T06:49:08;95878.94;;;6.96;100.00
55032;BME280;40928;51.076;7.950;2023-01-08T06:51:34;95880.94;;;6.89;100.00
55032;BME280;40928;51.076;7.950;2023-01-08T06:54:00;95876.63;;;6.82;100.00
55032;BME280;40928;51.076;7.950;2023-01-08T06:56:25;95873.41;;;6.80;100.00
55032;BME280;40928;51.076;7.950;2023-01-08T06:58:51;95879.50;;;6.81;100.00
55032;BME280;40928;51.076;7.950;2023-01-08T07:01:16;95877.41;;;6.83;100.00
55032;BME280;40928;51.076;7.950;2023-01-08T07:03:42;95869.47;;;6.83;100.00
55032;BME280;40928;51.076;7.950;2023-01-08T07:06:17;95878.25;;;6.83;100.00
55032;BME280;40928;51.076;7.950;2023-01-08T07:08:43;95880.34;;;6.81;100.00
55032;BME280;40928;51.076;7.950;2023-01-08T07:11:09;95879.28;;;6.82;100.00
55032;BME280;40928;51.076;7.950;2023-01-08T07:13:35;95885.56;;;6.76;100.00
55032;BME280;40928;51.076;7.950;2023-01-08T07:16:08;95885.72;;;6.69;100.00
55032;BME280;40928;51.076;7.950;2023-01-08T07:18:34;95892.78;;;6.64;100.00
55032;BME280;40928;51.076;7.950;2023-01-08T07:21:01;95889.31;;;6.63;100.00
55032;BME280;40928;51.076;7.950;2023-01-08T07:23:28;95890.16;;;6.64;100.00
55032;BME280;40928;51.076;7.950;2023-01-08T07:25:53;95882.59;;;6.73;100.00
55032;BME280;40928;51.076;7.950;2023-01-08T07:28:19;95891.28;;;6.68;100.00
55032;BME280;40928;51.076;7.950;2023-01-08T07:30:44;95894.72;;;6.68;100.00
55032;BME280;40928;51.076;7.950;2023-01-08T07:33:10;95892.06;;;6.68;100.00
55032;BME280;40928;51.076;7.950;2023-01-08T07:35:36;95887.88;;;6.73;100.00
55032;BME280;40928;51.076;7.950;2023-01-08T07:38:04;95880.41;;;6.69;100.00
55032;BME280;40928;51.076;7.950;2023-01-08T07:40:29;95880.25;;;6.76;100.00
55032;BME280;40928;51.076;7.950;2023-01-08T07:43:01;95879.47;;;6.76;100.00
55032;BME280;40928;51.076;7.950;2023-01-08T07:45:29;95884.97;;;6.74;100.00
55032;BME280;40928;51.076;7.950;2023-01-08T07:47:59;95883.72;;;6.77;100.00
55032;BME280;40928;51.076;7.950;2023-01-08T07:50:31;95884.38;;;6.67;100.00
55032;BME280;40928;51.076;7.950;2023-01-08T07:52:58;95885.41;;;6.66;100.00
55032;BME280;40928;51.076;7.950;2023-01-08T07:55:24;95887.72;;;6.79;100.00
55032;BME280;40928;51.076;7.950;2023-01-08T07:57:50;95879.63;;;6.69;100.00
55032;BME280;40928;51.076;7.950;2023-01-08T08:00:16;95881.13;;;6.65;100.00
55032;BME280;40928;51.076;7.950;2023-01-08T08:02:42;95877.75;;;6.69;100.00
55032;BME280;40928;51.076;7.950;2023-01-08T08:05:08;95882.97;;;6.64;100.00
55032;BME280;40928;51.076;7.950;2023-01-08T08:07:33;95875.28;;;6.63;100.00
55032;BME280;40928;51.076;7.950;2023-01-08T08:10:00;95883.31;;;6.68;100.00
55032;BME280;40928;51.076;7.950;2023-01-08T08:12:26;95884.41;;;6.72;100.00
55032;BME280;40928;51.076;7.950;2023-01-08T08:14:51;95881.94;;;6.65;100.00
55032;BME280;40928;51.076;7.950;2023-01-08T08:17:17;95867.31;;;6.63;100.00
55032;BME280;40928;51.076;7.950;2023-01-08T08:19:42;95878.41;;;6.60;100.00
55032;BME280;40928;51.076;7.950;2023-01-08T08:22:13;95885.06;;;6.62;100.00
55032;BME280;40928;51.076;7.950;2023-01-08T08:24:39;95878.66;;;6.58;100.00
55032;BME280;40928;51.076;7.950;2023-01-08T08:27:05;95882.91;;;6.59;100.00
55032;BME280;40928;51.076;7.950;2023-01-08T08:29:30;95879.53;;;6.64;100.00
55032;BME280;40928;51.076;7.950;2023-01-08T08:31:56;95870.44;;;6.60;100.00
55032;BME280;40928;51.076;7.950;2023-01-08T08:34:23;95884.38;;;6.67;100.00
55032;BME280;40928;51.076;7.950;2023-01-08T08:36:49;95883.84;;;6.70;100.00
55032;BME280;40928;51.076;7.950;2023-01-08T08:39:15;95888.53;;;6.63;100.00
55032;BME280;40928;51.076;7.950;2023-01-08T08:41:41;95878.31;;;6.72;100.00
55032;BME280;40928;51.076;7.950;2023-01-08T08:44:07;95874.31;;;6.69;100.00
55032;BME280;40928;51.076;7.950;2023-01-08T08:46:34;95876.88;;;6.64;100.00
55032;BME280;40928;51.076;7.950;2023-01-08T08:49:00;95882.19;;;6.64;100.00
55032;BME280;40928;51.076;7.950;2023-01-08T08:51:26;95873.34;;;6.58;100.00
55032;BME280;40928;51.076;7.950;2023-01-08T08:53:52;95882.66;;;6.61;100.00
55032;BME280;40928;51.076;7.950;2023-01-08T08:56:18;95873.34;;;6.58;100.00
55032;BME280;40928;51.076;7.950;2023-01-08T08:58:44;95873.56;;;6.57;100.00
55032;BME280;40928;51.076;7.950;2023-01-08T09:01:14;95869.66;;;6.59;100.00
55032;BME280;40928;51.076;7.950;2023-01-08T09:03:39;95884.38;;;6.67;100.00
55032;BME280;40928;51.076;7.950;2023-01-08T09:06:05;95877.91;;;6.63;100.00
55032;BME280;40928;51.076;7.950;2023-01-08T09:08:31;95886.91;;;6.62;100.00
55032;BME280;40928;51.076;7.950;2023-01-08T09:10:56;95867.31;;;6.63;100.00
55032;BME280;40928;51.076;7.950;2023-01-08T09:13:22;95859.84;;;6.60;100.00
55032;BME280;40928;51.076;7.950;2023-01-08T09:15:48;95872.03;;;6.78;100.00
55032;BME280;40928;51.076;7.950;2023-01-08T09:18:14;95872.03;;;6.78;100.00
55032;BME280;40928;51.076;7.950;2023-01-08T09:20:40;95874.94;;;6.76;100.00
55032;BME280;40928;51.076;7.950;2023-01-08T09:23:05;95874.38;;;6.74;100.00
55032;BME280;40928;51.076;7.950;2023-01-08T09:25:31;95869.06;;;6.74;100.00
55032;BME280;40928;51.076;7.950;2023-01-08T09:28:00;95862.72;;;6.75;100.00
55032;BME280;40928;51.076;7.950;2023-01-08T09:30:26;95855.81;;;6.74;100.00
55032;BME280;40928;51.076;7.950;2023-01-08T09:32:56;95872.59;;;6.80;100.00
55032;BME280;40928;51.076;7.950;2023-01-08T09:35:23;95860.63;;;6.77;100.00
55032;BME280;40928;51.076;7.950;2023-01-08T09:37:51;95859.97;;;6.87;100.00
55032;BME280;40928;51.076;7.950;2023-01-08T09:40:18;95861.41;;;6.95;100.00
55032;BME280;40928;51.076;7.950;2023-01-08T09:42:53;95858.97;;;6.93;100.00
55032;BME280;40928;51.076;7.950;2023-01-08T09:45:28;95855.06;;;6.96;100.00
55032;BME280;40928;51.076;7.950;2023-01-08T09:48:00;95849.75;;;6.96;100.00
55032;BME280;40928;51.076;7.950;2023-01-08T09:50:28;95860.97;;;7.03;100.00
55032;BME280;40928;51.076;7.950;2023-01-08T09:52:57;95858.75;;;6.95;100.00
55032;BME280;40928;51.076;7.950;2023-01-08T09:55:24;95861.97;;;6.97;100.00
55032;BME280;40928;51.076;7.950;2023-01-08T09:57:50;95857.75;;;7.01;100.00
55032;BME280;40928;51.076;7.950;2023-01-08T10:00:20;95851.88;;;7.16;100.00
55032;BME280;40928;51.076;7.950;2023-01-08T10:02:47;95851.19;;;7.26;100.00
55032;BME280;40928;51.076;7.950;2023-01-08T10:05:15;95842.97;;;7.27;100.00
55032;BME280;40928;51.076;7.950;2023-01-08T10:07:42;95834.88;;;7.17;100.00
55032;BME280;40928;51.076;7.950;2023-01-08T10:10:25;95853.22;;;7.19;100.00
55032;BME280;40928;51.076;7.950;2023-01-08T10:12:53;95839.22;;;7.23;100.00
55032;BME280;40928;51.076;7.950;2023-01-08T10:15:20;95853.03;;;7.25;100.00
55032;BME280;40928;51.076;7.950;2023-01-08T10:18:03;95846.81;;;7.14;100.00
55032;BME280;40928;51.076;7.950;2023-01-08T10:20:29;95826.63;;;7.13;100.00
55032;BME280;40928;51.076;7.950;2023-01-08T10:22:55;95831.31;;;7.28;100.00
55032;BME280;40928;51.076;7.950;2023-01-08T10:25:26;95830.06;;;7.36;100.00
55032;BME280;40928;51.076;7.950;2023-01-08T10:28:01;95833.94;;;7.51;100.00
55032;BME280;40928;51.076;7.950;2023-01-08T10:30:35;95840.38;;;7.55;100.00
55032;BME280;40928;51.076;7.950;2023-01-08T10:33:10;95830.94;;;7.42;100.00
55032;BME280;40928;51.076;7.950;2023-01-08T10:36:00;95829.59;;;7.39;100.00
55032;BME280;40928;51.076;7.950;2023-01-08T10:38:35;95828.03;;;7.43;100.00
55032;BME280;40928;51.076;7.950;2023-01-08T10:41:22;95831.13;;;7.35;100.00
55032;BME280;40928;51.076;7.950;2023-01-08T10:43:52;95826.94;;;7.17;100.00
55032;BME280;40928;51.076;7.950;2023-01-08T10:46:26;95824.56;;;7.21;100.00
55032;BME280;40928;51.076;7.950;2023-01-08T10:48:55;95827.19;;;7.15;100.00
55032;BME280;40928;51.076;7.950;2023-01-08T10:51:26;95823.41;;;7.11;100.00
55032;BME280;40928;51.076;7.950;2023-01-08T10:53:59;95810.38;;;7.10;100.00
55032;BME280;40928;51.076;7.950;2023-01-08T10:56:30;95808.94;;;7.24;100.00
55032;BME280;40928;51.076;7.950;2023-01-08T10:59:21;95801.44;;;7.16;100.00
55032;BME280;40928;51.076;7.950;2023-01-08T11:01:50;95807.41;;;7.06;100.00
55032;BME280;40928;51.076;7.950;2023-01-08T11:04:30;95791.41;;;7.01;100.00
55032;BME280;40928;51.076;7.950;2023-01-08T11:07:00;95797.59;;;7.07;100.00
55032;BME280;40928;51.076;7.950;2023-01-08T11:09:40;95795.31;;;7.15;100.00
55032;BME280;40928;51.076;7.950;2023-01-08T11:12:37;95795.66;;;7.24;100.00
55032;BME280;40928;51.076;7.950;2023-01-08T11:15:31;95787.41;;;7.21;100.00
55032;BME280;40928;51.076;7.950;2023-01-08T11:18:27;95788.03;;;7.28;100.00
55032;BME280;40928;51.076;7.950;2023-01-08T11:21:05;95789.56;;;7.24;100.00
55032;BME280;40928;51.076;7.950;2023-01-08T11:23:32;95786.91;;;7.24;100.00
55032;BME280;40928;51.076;7.950;2023-01-08T11:26:05;95776.78;;;7.21;100.00
55032;BME280;40928;51.076;7.950;2023-01-08T11:29:01;95774.69;;;7.23;100.00
55032;BME280;40928;51.076;7.950;2023-01-08T11:37:19;95762.78;;;7.03;100.00
55032;BME280;40928;51.076;7.950;2023-01-08T11:39:59;95763.78;;;6.97;100.00
55032;BME280;40928;51.076;7.950;2023-01-08T11:53:30;95744.56;;;6.90;100.00
55032;BME280;40928;51.076;7.950;2023-01-08T11:58:55;95727.66;;;6.96;100.00
55032;BME280;40928;51.076;7.950;2023-01-08T12:01:42;95728.53;;;7.01;100.00
55032;BME280;40928;51.076;7.950;2023-01-08T12:04:41;95713.91;;;6.99;100.00
55032;BME280;40928;51.076;7.950;2023-01-08T12:07:28;95714.94;;;6.98;100.00
55032;BME280;40928;51.076;7.950;2023-01-08T12:10:13;95710.19;;;7.00;100.00
55032;BME280;40928;51.076;7.950;2023-01-08T12:21:58;95682.59;;;7.01;100.00
55032;BME280;40928;51.076;7.950;2023-01-08T12:26:41;95681.53;;;7.02;100.00
55032;BME280;40928;51.076;7.950;2023-01-08T12:40:16;95663.63;;;7.14;100.00
55032;BME280;40928;51.076;7.950;2023-01-08T12:42:43;95654.63;;;7.15;100.00
55032;BME280;40928;51.076;7.950;2023-01-08T12:47:47;95656.25;;;7.22;100.00
55032;BME280;40928;51.076;7.950;2023-01-08T12:50:35;95653.25;;;7.13;100.00
55032;BME280;40928;51.076;7.950;2023-01-08T12:53:11;95642.34;;;7.09;100.00
55032;BME280;40928;51.076;7.950;2023-01-08T12:55:45;95653.03;;;7.14;100.00
55032;BME280;40928;51.076;7.950;2023-01-08T13:00:48;95637.81;;;7.10;100.00
55032;BME280;40928;51.076;7.950;2023-01-08T13:03:21;95638.38;;;7.12;100.00
55032;BME280;40928;51.076;7.950;2023-01-08T13:05:48;95639.41;;;7.06;100.00
55032;BME280;40928;51.076;7.950;2023-01-08T13:08:29;95620.81;;;7.06;100.00
55032;BME280;40928;51.076;7.950;2023-01-08T13:10:56;95631.22;;;7.12;100.00
55032;BME280;40928;51.076;7.950;2023-01-08T13:13:28;95625.38;;;7.10;100.00
55032;BME280;40928;51.076;7.950;2023-01-08T13:18:36;95635.38;;;7.03;100.00
55032;BME280;40928;51.076;7.950;2023-01-08T13:21:03;95629.00;;;7.04;100.00
55032;BME280;40928;51.076;7.950;2023-01-08T13:23:31;95628.03;;;7.10;100.00
55032;BME280;40928;51.076;7.950;2023-01-08T13:26:01;95623.50;;;7.11;100.00
55032;BME280;40928;51.076;7.950;2023-01-08T13:38:41;95613.91;;;7.05;100.00
55032;BME280;40928;51.076;7.950;2023-01-08T13:41:58;95613.56;;;7.01;100.00
55032;BME280;40928;51.076;7.950;2023-01-08T13:44:28;95605.94;;;7.05;100.00
55032;BME280;40928;51.076;7.950;2023-01-08T13:46:56;95604.88;;;7.06;100.00
55032;BME280;40928;51.076;7.950;2023-01-08T13:49:42;95609.66;;;7.09;100.00
55032;BME280;40928;51.076;7.950;2023-01-08T13:52:31;95607.00;;;7.04;100.00
55032;BME280;40928;51.076;7.950;2023-01-08T13:55:00;95595.75;;;6.96;100.00
55032;BME280;40928;51.076;7.950;2023-01-08T13:57:35;95601.31;;;6.95;100.00
55032;BME280;40928;51.076;7.950;2023-01-08T14:00:05;95605.59;;;6.96;100.00
55032;BME280;40928;51.076;7.950;2023-01-08T14:02:40;95602.38;;;6.94;100.00
55032;BME280;40928;51.076;7.950;2023-01-08T14:05:17;95594.50;;;7.04;100.00
55032;BME280;40928;51.076;7.950;2023-01-08T14:07:43;95580.75;;;7.07;100.00
55032;BME280;40928;51.076;7.950;2023-01-08T14:10:12;95590.31;;;7.08;100.00
55032;BME280;40928;51.076;7.950;2023-01-08T14:12:38;95578.38;;;7.11;100.00
55032;BME280;40928;51.076;7.950;2023-01-08T14:15:08;95583.25;;;7.19;100.00
55032;BME280;40928;51.076;7.950;2023-01-08T14:17:35;95584.53;;;7.16;100.00
55032;BME280;40928;51.076;7.950;2023-01-08T14:20:01;95586.88;;;7.08;100.00
55032;BME280;40928;51.076;7.950;2023-01-08T14:22:31;95581.84;;;7.11;100.00
55032;BME280;40928;51.076;7.950;2023-01-08T14:25:03;95583.44;;;7.12;100.00